Shelton, Louisiana
Current Conditions -  °F | °C
As of 7:55 PM on Saturday 25 Oct 2014 (Local Time) from KBQP Reporting Station
Clear Clear  
Wind Chill: 64°   Ceiling: Unl
Heat Index: 64°   Visibility: 10mi
Dew Point: 62°   Wind: 0mph
Humidity: 95%   Direction: NA
Pressure: 30.08"   Gusts: NA
Location:  32.8721°N, 91.912°W
Report Text: KBQP 260055Z AUTO 00000KT 10SM CLR 18/17 A3008 RMK AO2 T01760168
Loading
Personal Weather Stations






























Interactive Weather Map
Tropical Storm Tracking
New forecast layout! Learn more

10-Day Weather Forecast

Advertisements
Track Severe Weather on mobile